sensor_id;sensor_type;location;lat;lon;timestamp;temperature;humidity
11140;DHT22;5624;49.388;11.350;2023-01-30T00:01:42;-3.60;95.40
11140;DHT22;5624;49.388;11.350;2023-01-30T00:04:08;-3.50;94.50
11140;DHT22;5624;49.388;11.350;2023-01-30T00:06:34;-3.50;94.50
11140;DHT22;5624;49.388;11.350;2023-01-30T00:08:59;-3.60;94.50
11140;DHT22;5624;49.388;11.350;2023-01-30T00:11:25;-3.60;94.60
11140;DHT22;5624;49.388;11.350;2023-01-30T00:13:53;-3.60;94.50
11140;DHT22;5624;49.388;11.350;2023-01-30T00:16:18;-3.70;94.50
11140;DHT22;5624;49.388;11.350;2023-01-30T00:18:44;-3.70;94.40
11140;DHT22;5624;49.388;11.350;2023-01-30T00:21:12;-3.80;94.50
11140;DHT22;5624;49.388;11.350;2023-01-30T00:23:38;-3.80;94.70
11140;DHT22;5624;49.388;11.350;2023-01-30T00:26:04;-3.90;94.90
11140;DHT22;5624;49.388;11.350;2023-01-30T00:28:30;-4.00;95.40
11140;DHT22;5624;49.388;11.350;2023-01-30T00:30:56;-4.00;95.60
11140;DHT22;5624;49.388;11.350;2023-01-30T00:33:24;-4.10;95.70
11140;DHT22;5624;49.388;11.350;2023-01-30T00:35:51;-4.10;95.70
11140;DHT22;5624;49.388;11.350;2023-01-30T00:38:17;-4.10;95.90
11140;DHT22;5624;49.388;11.350;2023-01-30T00:40:43;-4.10;95.70
11140;DHT22;5624;49.388;11.350;2023-01-30T00:43:11;-4.20;96.10
11140;DHT22;5624;49.388;11.350;2023-01-30T00:45:56;-4.30;96.10
11140;DHT22;5624;49.388;11.350;2023-01-30T00:48:41;-4.30;96.40
11140;DHT22;5624;49.388;11.350;2023-01-30T00:51:06;-4.30;97.20
11140;DHT22;5624;49.388;11.350;2023-01-30T00:53:32;-4.30;97.10
11140;DHT22;5624;49.388;11.350;2023-01-30T00:55:58;-4.20;97.20
11140;DHT22;5624;49.388;11.350;2023-01-30T00:58:24;-4.00;96.90
11140;DHT22;5624;49.388;11.350;2023-01-30T01:00:50;-3.90;96.50
11140;DHT22;5624;49.388;11.350;2023-01-30T01:03:16;-3.80;95.90
11140;DHT22;5624;49.388;11.350;2023-01-30T01:05:42;-3.70;95.60
11140;DHT22;5624;49.388;11.350;2023-01-30T01:08:08;-3.70;95.70
11140;DHT22;5624;49.388;11.350;2023-01-30T01:10:34;-3.60;95.30
11140;DHT22;5624;49.388;11.350;2023-01-30T01:12:59;-3.60;95.20
11140;DHT22;5624;49.388;11.350;2023-01-30T01:15:25;-3.50;95.20
11140;DHT22;5624;49.388;11.350;2023-01-30T01:17:51;-3.40;94.90
11140;DHT22;5624;49.388;11.350;2023-01-30T01:20:18;-3.30;94.60
11140;DHT22;5624;49.388;11.350;2023-01-30T01:22:45;-3.30;94.00
11140;DHT22;5624;49.388;11.350;2023-01-30T01:25:14;-3.30;94.20
11140;DHT22;5624;49.388;11.350;2023-01-30T01:27:39;-3.30;94.00
11140;DHT22;5624;49.388;11.350;2023-01-30T01:30:05;-3.20;93.90
11140;DHT22;5624;49.388;11.350;2023-01-30T01:32:32;-3.20;93.40
11140;DHT22;5624;49.388;11.350;2023-01-30T01:34:57;-3.20;93.60
11140;DHT22;5624;49.388;11.350;2023-01-30T01:37:23;-3.10;93.50
11140;DHT22;5624;49.388;11.350;2023-01-30T01:39:48;-3.10;93.30
11140;DHT22;5624;49.388;11.350;2023-01-30T01:42:36;-3.20;93.30
11140;DHT22;5624;49.388;11.350;2023-01-30T01:45:22;-3.10;93.50
11140;DHT22;5624;49.388;11.350;2023-01-30T01:48:01;-3.10;93.20
11140;DHT22;5624;49.388;11.350;2023-01-30T01:50:52;-3.10;92.90
11140;DHT22;5624;49.388;11.350;2023-01-30T01:53:23;-3.10;93.10
11140;DHT22;5624;49.388;11.350;2023-01-30T01:55:52;-3.10;93.40
11140;DHT22;5624;49.388;11.350;2023-01-30T01:58:27;-3.00;93.30
11140;DHT22;5624;49.388;11.350;2023-01-30T02:00:56;-3.00;93.10
11140;DHT22;5624;49.388;11.350;2023-01-30T02:03:24;-3.00;93.10
11140;DHT22;5624;49.388;11.350;2023-01-30T02:05:53;-3.00;93.00
11140;DHT22;5624;49.388;11.350;2023-01-30T02:08:23;-3.00;93.00
11140;DHT22;5624;49.388;11.350;2023-01-30T02:13:47;-3.00;93.20
11140;DHT22;5624;49.388;11.350;2023-01-30T02:16:14;-2.90;92.90
11140;DHT22;5624;49.388;11.350;2023-01-30T02:18:41;-2.90;93.20
11140;DHT22;5624;49.388;11.350;2023-01-30T02:29:54;-2.90;93.20
11140;DHT22;5624;49.388;11.350;2023-01-30T02:35:35;-3.00;94.40
11140;DHT22;5624;49.388;11.350;2023-01-30T02:44:26;-2.90;95.50
11140;DHT22;5624;49.388;11.350;2023-01-30T02:49:25;-2.80;95.50
11140;DHT22;5624;49.388;11.350;2023-01-30T02:51:55;-2.80;95.90
11140;DHT22;5624;49.388;11.350;2023-01-30T02:54:22;-2.90;95.30
11140;DHT22;5624;49.388;11.350;2023-01-30T02:56:50;-2.90;95.60
11140;DHT22;5624;49.388;11.350;2023-01-30T02:59:23;-2.80;95.70
11140;DHT22;5624;49.388;11.350;2023-01-30T03:05:29;-2.80;96.00
11140;DHT22;5624;49.388;11.350;2023-01-30T03:11:06;-2.70;95.40
11140;DHT22;5624;49.388;11.350;2023-01-30T03:13:54;-2.70;95.40
11140;DHT22;5624;49.388;11.350;2023-01-30T03:18:51;-2.50;95.00
11140;DHT22;5624;49.388;11.350;2023-01-30T03:21:18;-2.40;95.30
11140;DHT22;5624;49.388;11.350;2023-01-30T03:23:45;-2.40;94.50
11140;DHT22;5624;49.388;11.350;2023-01-30T03:26:17;-2.40;94.50
11140;DHT22;5624;49.388;11.350;2023-01-30T03:28:45;-2.40;94.20
11140;DHT22;5624;49.388;11.350;2023-01-30T03:31:12;-2.30;94.20
11140;DHT22;5624;49.388;11.350;2023-01-30T03:33:38;-2.30;94.00
11140;DHT22;5624;49.388;11.350;2023-01-30T03:36:04;-2.40;94.40
11140;DHT22;5624;49.388;11.350;2023-01-30T03:38:30;-2.40;94.50
11140;DHT22;5624;49.388;11.350;2023-01-30T03:40:55;-2.30;94.50
11140;DHT22;5624;49.388;11.350;2023-01-30T03:43:21;-2.30;94.40
11140;DHT22;5624;49.388;11.350;2023-01-30T03:45:47;-2.30;94.20
11140;DHT22;5624;49.388;11.350;2023-01-30T03:48:12;-2.20;94.00
11140;DHT22;5624;49.388;11.350;2023-01-30T03:50:38;-2.20;94.10
11140;DHT22;5624;49.388;11.350;2023-01-30T03:53:04;-2.20;93.70
11140;DHT22;5624;49.388;11.350;2023-01-30T03:55:29;-2.20;93.90
11140;DHT22;5624;49.388;11.350;2023-01-30T03:57:58;-2.20;93.70
11140;DHT22;5624;49.388;11.350;2023-01-30T04:00:23;-2.10;93.40
11140;DHT22;5624;49.388;11.350;2023-01-30T04:02:49;-2.10;93.40
11140;DHT22;5624;49.388;11.350;2023-01-30T04:05:15;-2.00;92.80
11140;DHT22;5624;49.388;11.350;2023-01-30T04:07:40;-2.10;93.10
11140;DHT22;5624;49.388;11.350;2023-01-30T04:10:06;-2.10;93.00
11140;DHT22;5624;49.388;11.350;2023-01-30T04:12:32;-2.00;93.30
11140;DHT22;5624;49.388;11.350;2023-01-30T04:14:58;-2.00;93.00
11140;DHT22;5624;49.388;11.350;2023-01-30T04:17:23;-2.00;92.40
11140;DHT22;5624;49.388;11.350;2023-01-30T04:19:49;-2.00;92.90
11140;DHT22;5624;49.388;11.350;2023-01-30T04:22:14;-2.00;92.80
11140;DHT22;5624;49.388;11.350;2023-01-30T04:24:40;-1.90;92.50
11140;DHT22;5624;49.388;11.350;2023-01-30T04:27:05;-1.90;92.00
11140;DHT22;5624;49.388;11.350;2023-01-30T04:29:31;-1.90;91.90
11140;DHT22;5624;49.388;11.350;2023-01-30T04:31:56;-1.90;91.90
11140;DHT22;5624;49.388;11.350;2023-01-30T04:34:22;-1.90;92.00
11140;DHT22;5624;49.388;11.350;2023-01-30T04:36:48;-1.80;92.30
11140;DHT22;5624;49.388;11.350;2023-01-30T04:39:13;-1.80;92.20
11140;DHT22;5624;49.388;11.350;2023-01-30T04:41:39;-1.80;92.00
11140;DHT22;5624;49.388;11.350;2023-01-30T04:44:04;-1.70;91.40
11140;DHT22;5624;49.388;11.350;2023-01-30T04:46:30;-1.70;91.20
11140;DHT22;5624;49.388;11.350;2023-01-30T04:48:56;-1.70;91.30
11140;DHT22;5624;49.388;11.350;2023-01-30T04:51:21;-1.70;91.00
11140;DHT22;5624;49.388;11.350;2023-01-30T04:53:47;-1.70;91.20
11140;DHT22;5624;49.388;11.350;2023-01-30T04:56:12;-1.60;91.00
11140;DHT22;5624;49.388;11.350;2023-01-30T04:58:38;-1.70;91.00
11140;DHT22;5624;49.388;11.350;2023-01-30T05:01:15;-1.70;91.00
11140;DHT22;5624;49.388;11.350;2023-01-30T05:03:49;-1.70;91.50
11140;DHT22;5624;49.388;11.350;2023-01-30T05:06:14;-1.60;90.90
11140;DHT22;5624;49.388;11.350;2023-01-30T05:08:40;-1.60;90.60
11140;DHT22;5624;49.388;11.350;2023-01-30T05:11:05;-1.60;90.60
11140;DHT22;5624;49.388;11.350;2023-01-30T05:13:31;-1.60;90.70
11140;DHT22;5624;49.388;11.350;2023-01-30T05:15:56;-1.60;90.90
11140;DHT22;5624;49.388;11.350;2023-01-30T05:18:22;-1.60;91.20
11140;DHT22;5624;49.388;11.350;2023-01-30T05:20:48;-1.60;91.60
11140;DHT22;5624;49.388;11.350;2023-01-30T05:23:13;-1.60;92.10
11140;DHT22;5624;49.388;11.350;2023-01-30T05:25:39;-1.60;92.50
11140;DHT22;5624;49.388;11.350;2023-01-30T05:28:05;-1.70;92.80
11140;DHT22;5624;49.388;11.350;2023-01-30T05:30:30;-1.70;93.30
11140;DHT22;5624;49.388;11.350;2023-01-30T05:32:57;-1.70;93.60
11140;DHT22;5624;49.388;11.350;2023-01-30T05:35:23;-1.70;93.60
11140;DHT22;5624;49.388;11.350;2023-01-30T05:37:51;-1.70;93.80
11140;DHT22;5624;49.388;11.350;2023-01-30T05:40:17;-1.70;94.20
11140;DHT22;5624;49.388;11.350;2023-01-30T05:42:43;-1.70;94.20
11140;DHT22;5624;49.388;11.350;2023-01-30T05:45:09;-1.70;94.60
11140;DHT22;5624;49.388;11.350;2023-01-30T05:47:34;-1.70;95.20
11140;DHT22;5624;49.388;11.350;2023-01-30T05:50:00;-1.70;95.40
11140;DHT22;5624;49.388;11.350;2023-01-30T05:52:25;-1.80;95.90
11140;DHT22;5624;49.388;11.350;2023-01-30T05:54:51;-1.70;96.10
11140;DHT22;5624;49.388;11.350;2023-01-30T05:57:17;-1.70;96.20
11140;DHT22;5624;49.388;11.350;2023-01-30T05:59:42;-1.80;96.70
11140;DHT22;5624;49.388;11.350;2023-01-30T06:02:08;-1.80;96.90
11140;DHT22;5624;49.388;11.350;2023-01-30T06:04:33;-1.70;97.40
11140;DHT22;5624;49.388;11.350;2023-01-30T06:07:00;-1.80;97.40
11140;DHT22;5624;49.388;11.350;2023-01-30T06:09:25;-1.80;97.70
11140;DHT22;5624;49.388;11.350;2023-01-30T06:11:51;-1.80;97.70
11140;DHT22;5624;49.388;11.350;2023-01-30T06:14:17;-1.80;97.80
11140;DHT22;5624;49.388;11.350;2023-01-30T06:16:42;-1.80;97.80
11140;DHT22;5624;49.388;11.350;2023-01-30T06:19:08;-1.80;97.70
11140;DHT22;5624;49.388;11.350;2023-01-30T06:21:33;-1.80;98.00
11140;DHT22;5624;49.388;11.350;2023-01-30T06:23:59;-1.80;98.30
11140;DHT22;5624;49.388;11.350;2023-01-30T06:26:25;-1.80;98.50
11140;DHT22;5624;49.388;11.350;2023-01-30T06:28:50;-1.80;98.30
11140;DHT22;5624;49.388;11.350;2023-01-30T06:31:16;-1.80;98.60
11140;DHT22;5624;49.388;11.350;2023-01-30T06:33:42;-1.90;98.50
11140;DHT22;5624;49.388;11.350;2023-01-30T06:36:08;-1.90;98.90
11140;DHT22;5624;49.388;11.350;2023-01-30T06:38:34;-1.80;98.70
11140;DHT22;5624;49.388;11.350;2023-01-30T06:41:00;-1.80;98.60
11140;DHT22;5624;49.388;11.350;2023-01-30T06:43:25;-1.80;98.60
11140;DHT22;5624;49.388;11.350;2023-01-30T06:45:51;-1.80;98.20
11140;DHT22;5624;49.388;11.350;2023-01-30T06:48:16;-1.80;98.10
11140;DHT22;5624;49.388;11.350;2023-01-30T06:50:45;-1.80;98.30
11140;DHT22;5624;49.388;11.350;2023-01-30T06:53:11;-1.70;98.20
11140;DHT22;5624;49.388;11.350;2023-01-30T06:55:36;-1.70;97.90
11140;DHT22;5624;49.388;11.350;2023-01-30T06:58:09;-1.70;97.50
11140;DHT22;5624;49.388;11.350;2023-01-30T07:00:36;-1.70;97.10
11140;DHT22;5624;49.388;11.350;2023-01-30T07:03:04;-1.70;97.10
11140;DHT22;5624;49.388;11.350;2023-01-30T07:05:30;-1.70;96.80
11140;DHT22;5624;49.388;11.350;2023-01-30T07:07:55;-1.70;96.90
11140;DHT22;5624;49.388;11.350;2023-01-30T07:10:21;-1.70;96.70
11140;DHT22;5624;49.388;11.350;2023-01-30T07:12:47;-1.60;96.70
11140;DHT22;5624;49.388;11.350;2023-01-30T07:15:12;-1.60;96.40
11140;DHT22;5624;49.388;11.350;2023-01-30T07:17:41;-1.60;96.20
11140;DHT22;5624;49.388;11.350;2023-01-30T07:20:08;-1.50;96.20
11140;DHT22;5624;49.388;11.350;2023-01-30T07:22:34;-1.50;95.60
11140;DHT22;5624;49.388;11.350;2023-01-30T07:25:00;-1.50;95.60
11140;DHT22;5624;49.388;11.350;2023-01-30T07:27:25;-1.50;95.60
11140;DHT22;5624;49.388;11.350;2023-01-30T07:29:51;-1.50;95.40
11140;DHT22;5624;49.388;11.350;2023-01-30T07:32:18;-1.50;95.20
11140;DHT22;5624;49.388;11.350;2023-01-30T07:34:44;-1.50;95.10
11140;DHT22;5624;49.388;11.350;2023-01-30T07:37:10;-1.50;95.00
11140;DHT22;5624;49.388;11.350;2023-01-30T07:39:36;-1.40;95.20
11140;DHT22;5624;49.388;11.350;2023-01-30T07:42:02;-1.40;94.50
11140;DHT22;5624;49.388;11.350;2023-01-30T07:44:27;-1.30;94.90
11140;DHT22;5624;49.388;11.350;2023-01-30T07:46:53;-1.30;94.50
11140;DHT22;5624;49.388;11.350;2023-01-30T07:49:19;-1.30;94.40
11140;DHT22;5624;49.388;11.350;2023-01-30T07:51:44;-1.30;94.10
11140;DHT22;5624;49.388;11.350;2023-01-30T07:54:10;-1.20;94.20
11140;DHT22;5624;49.388;11.350;2023-01-30T07:56:36;-1.20;94.00
11140;DHT22;5624;49.388;11.350;2023-01-30T07:59:01;-1.10;94.10
11140;DHT22;5624;49.388;11.350;2023-01-30T08:01:27;-1.00;93.90
11140;DHT22;5624;49.388;11.350;2023-01-30T08:03:53;-0.90;93.30
11140;DHT22;5624;49.388;11.350;2023-01-30T08:06:18;-1.00;93.10
11140;DHT22;5624;49.388;11.350;2023-01-30T08:08:44;-0.90;92.80
11140;DHT22;5624;49.388;11.350;2023-01-30T08:11:10;-0.90;92.90
11140;DHT22;5624;49.388;11.350;2023-01-30T08:13:36;-0.80;92.50
11140;DHT22;5624;49.388;11.350;2023-01-30T08:16:03;-0.60;92.20
11140;DHT22;5624;49.388;11.350;2023-01-30T08:18:30;-0.50;91.00
11140;DHT22;5624;49.388;11.350;2023-01-30T08:20:59;-0.40;90.20
11140;DHT22;5624;49.388;11.350;2023-01-30T08:23:25;-0.50;90.50
11140;DHT22;5624;49.388;11.350;2023-01-30T08:25:58;-0.50;90.60
11140;DHT22;5624;49.388;11.350;2023-01-30T08:28:25;-0.50;90.80
11140;DHT22;5624;49.388;11.350;2023-01-30T08:30:51;-0.50;90.80
11140;DHT22;5624;49.388;11.350;2023-01-30T08:33:18;-0.50;90.90
11140;DHT22;5624;49.388;11.350;2023-01-30T08:35:44;-0.60;91.20
11140;DHT22;5624;49.388;11.350;2023-01-30T08:38:09;-0.50;91.30
11140;DHT22;5624;49.388;11.350;2023-01-30T08:40:36;-0.50;90.90
11140;DHT22;5624;49.388;11.350;2023-01-30T08:43:02;-0.50;91.00
11140;DHT22;5624;49.388;11.350;2023-01-30T08:45:28;-0.50;91.10
11140;DHT22;5624;49.388;11.350;2023-01-30T08:48:03;-0.50;91.00
11140;DHT22;5624;49.388;11.350;2023-01-30T08:50:29;-0.60;91.00
11140;DHT22;5624;49.388;11.350;2023-01-30T08:52:55;-0.50;91.30
11140;DHT22;5624;49.388;11.350;2023-01-30T08:55:21;-0.50;91.20
11140;DHT22;5624;49.388;11.350;2023-01-30T08:57:47;-0.50;90.80
11140;DHT22;5624;49.388;11.350;2023-01-30T09:00:13;-0.60;91.20
11140;DHT22;5624;49.388;11.350;2023-01-30T09:02:39;-0.50;91.40
11140;DHT22;5624;49.388;11.350;2023-01-30T09:05:06;-0.50;91.10
11140;DHT22;5624;49.388;11.350;2023-01-30T09:07:32;-0.50;91.20
11140;DHT22;5624;49.388;11.350;2023-01-30T09:09:58;-0.50;91.20
11140;DHT22;5624;49.388;11.350;2023-01-30T09:12:24;-0.50;91.60
11140;DHT22;5624;49.388;11.350;2023-01-30T09:14:50;-0.60;92.20
11140;DHT22;5624;49.388;11.350;2023-01-30T09:17:17;-0.50;93.00
11140;DHT22;5624;49.388;11.350;2023-01-30T09:19:43;-0.50;93.30
11140;DHT22;5624;49.388;11.350;2023-01-30T09:22:09;-0.60;93.90
11140;DHT22;5624;49.388;11.350;2023-01-30T09:24:35;-0.60;94.20
11140;DHT22;5624;49.388;11.350;2023-01-30T09:27:00;-0.60;94.70
11140;DHT22;5624;49.388;11.350;2023-01-30T09:29:26;-0.60;95.40
11140;DHT22;5624;49.388;11.350;2023-01-30T09:31:52;-0.60;95.90
11140;DHT22;5624;49.388;11.350;2023-01-30T09:34:18;-0.60;96.10
11140;DHT22;5624;49.388;11.350;2023-01-30T09:36:44;-0.60;96.30
11140;DHT22;5624;49.388;11.350;2023-01-30T09:39:10;-0.60;96.60
11140;DHT22;5624;49.388;11.350;2023-01-30T09:54:35;-0.60;97.70
11140;DHT22;5624;49.388;11.350;2023-01-30T09:57:13;-0.60;98.20
11140;DHT22;5624;49.388;11.350;2023-01-30T09:59:53;-0.60;98.30
11140;DHT22;5624;49.388;11.350;2023-01-30T10:04:54;-0.50;98.20
11140;DHT22;5624;49.388;11.350;2023-01-30T10:07:25;-0.50;98.50
11140;DHT22;5624;49.388;11.350;2023-01-30T10:13:14;-0.50;98.60
11140;DHT22;5624;49.388;11.350;2023-01-30T10:15:46;-0.40;98.50
11140;DHT22;5624;49.388;11.350;2023-01-30T10:26:26;-0.30;98.10
11140;DHT22;5624;49.388;11.350;2023-01-30T10:29:29;-0.30;98.30
11140;DHT22;5624;49.388;11.350;2023-01-30T10:31:51;-0.30;98.50
11140;DHT22;5624;49.388;11.350;2023-01-30T10:34:23;-0.20;98.10
11140;DHT22;5624;49.388;11.350;2023-01-30T10:37:19;-0.10;97.60
11140;DHT22;5624;49.388;11.350;2023-01-30T10:39:53;-0.10;97.50
11140;DHT22;5624;49.388;11.350;2023-01-30T10:42:26;-0.10;97.40
11140;DHT22;5624;49.388;11.350;2023-01-30T10:44:59;-0.10;97.30
11140;DHT22;5624;49.388;11.350;2023-01-30T10:50:17;0.00;96.70
11140;DHT22;5624;49.388;11.350;2023-01-30T10:53:07;0.00;96.80
11140;DHT22;5624;49.388;11.350;2023-01-30T10:55:44;-0.10;96.60
11140;DHT22;5624;49.388;11.350;2023-01-30T10:58:24;0.00;96.50
11140;DHT22;5624;49.388;11.350;2023-01-30T11:01:05;0.00;96.50
11140;DHT22;5624;49.388;11.350;2023-01-30T11:03:40;0.00;96.40
11140;DHT22;5624;49.388;11.350;2023-01-30T11:06:18;0.00;96.40
11140;DHT22;5624;49.388;11.350;2023-01-30T11:08:48;0.00;96.70
11140;DHT22;5624;49.388;11.350;2023-01-30T11:14:04;0.00;96.20
11140;DHT22;5624;49.388;11.350;2023-01-30T11:16:30;0.00;96.00
11140;DHT22;5624;49.388;11.350;2023-01-30T11:18:56;0.10;95.80
11140;DHT22;5624;49.388;11.350;2023-01-30T11:21:30;0.00;95.60
11140;DHT22;5624;49.388;11.350;2023-01-30T11:24:03;0.10;95.90
11140;DHT22;5624;49.388;11.350;2023-01-30T11:26:33;0.10;95.70
11140;DHT22;5624;49.388;11.350;2023-01-30T11:31:52;0.20;95.60
11140;DHT22;5624;49.388;11.350;2023-01-30T11:34:20;0.20;95.50
11140;DHT22;5624;49.388;11.350;2023-01-30T11:36:47;0.20;95.30
11140;DHT22;5624;49.388;11.350;2023-01-30T11:41:57;0.20;95.60
11140;DHT22;5624;49.388;11.350;2023-01-30T11:44:34;0.20;95.80
11140;DHT22;5624;49.388;11.350;2023-01-30T11:47:28;0.30;95.80
11140;DHT22;5624;49.388;11.350;2023-01-30T11:49:57;0.30;95.30
11140;DHT22;5624;49.388;11.350;2023-01-30T11:52:30;0.30;95.70
11140;DHT22;5624;49.388;11.350;2023-01-30T11:55:00;0.30;95.80
11140;DHT22;5624;49.388;11.350;2023-01-30T11:57:41;0.30;95.80
11140;DHT22;5624;49.388;11.350;2023-01-30T12:00:21;0.30;96.50
11140;DHT22;5624;49.388;11.350;2023-01-30T12:02:49;0.20;96.40
11140;DHT22;5624;49.388;11.350;2023-01-30T12:05:33;0.30;96.20
11140;DHT22;5624;49.388;11.350;2023-01-30T12:08:22;0.30;96.40
11140;DHT22;5624;49.388;11.350;2023-01-30T12:10:54;0.30;97.00
11140;DHT22;5624;49.388;11.350;2023-01-30T12:13:30;0.30;97.70
11140;DHT22;5624;49.388;11.350;2023-01-30T12:22:07;0.20;98.80
11140;DHT22;5624;49.388;11.350;2023-01-30T12:27:29;0.20;98.90
11140;DHT22;5624;49.388;11.350;2023-01-30T12:30:18;0.20;98.80
11140;DHT22;5624;49.388;11.350;2023-01-30T12:32:45;0.30;98.90
11140;DHT22;5624;49.388;11.350;2023-01-30T12:35:15;0.30;98.80
11140;DHT22;5624;49.388;11.350;2023-01-30T12:38:13;0.30;98.60
11140;DHT22;5624;49.388;11.350;2023-01-30T12:40:52;0.40;98.40
11140;DHT22;5624;49.388;11.350;2023-01-30T12:49:20;0.50;98.40
11140;DHT22;5624;49.388;11.350;2023-01-30T12:52:43;0.50;98.40
11140;DHT22;5624;49.388;11.350;2023-01-30T12:55:23;0.50;98.50
11140;DHT22;5624;49.388;11.350;2023-01-30T13:16:59;0.80;97.10
11140;DHT22;5624;49.388;11.350;2023-01-30T13:20:02;0.80;97.10
11140;DHT22;5624;49.388;11.350;2023-01-30T13:22:40;0.80;96.90
11140;DHT22;5624;49.388;11.350;2023-01-30T13:27:43;0.80;97.00
11140;DHT22;5624;49.388;11.350;2023-01-30T13:30:15;0.90;96.70
11140;DHT22;5624;49.388;11.350;2023-01-30T13:32:51;1.00;96.20
11140;DHT22;5624;49.388;11.350;2023-01-30T13:35:28;1.00;95.60
11140;DHT22;5624;49.388;11.350;2023-01-30T13:37:56;1.10;95.40
11140;DHT22;5624;49.388;11.350;2023-01-30T13:40:27;1.10;94.90
11140;DHT22;5624;49.388;11.350;2023-01-30T13:43:03;1.00;94.70
11140;DHT22;5624;49.388;11.350;2023-01-30T13:45:34;1.00;95.20
11140;DHT22;5624;49.388;11.350;2023-01-30T13:50:51;1.00;94.90
11140;DHT22;5624;49.388;11.350;2023-01-30T13:53:33;1.10;94.70
11140;DHT22;5624;49.388;11.350;2023-01-30T13:56:15;1.10;94.60
11140;DHT22;5624;49.388;11.350;2023-01-30T13:58:56;1.10;94.40
11140;DHT22;5624;49.388;11.350;2023-01-30T14:01:23;1.10;94.20
11140;DHT22;5624;49.388;11.350;2023-01-30T14:09:48;1.00;94.60
11140;DHT22;5624;49.388;11.350;2023-01-30T14:20:27;1.10;93.50
11140;DHT22;5624;49.388;11.350;2023-01-30T14:23:52;1.30;93.30
11140;DHT22;5624;49.388;11.350;2023-01-30T14:25:51;1.30;93.30
11140;DHT22;5624;49.388;11.350;2023-01-30T14:30:55;1.30;92.40
11140;DHT22;5624;49.388;11.350;2023-01-30T14:36:28;1.20;92.70
11140;DHT22;5624;49.388;11.350;2023-01-30T14:38:36;1.20;93.00
11140;DHT22;5624;49.388;11.350;2023-01-30T14:53:49;1.30;91.60
11140;DHT22;5624;49.388;11.350;2023-01-30T14:56:15;1.20;92.10
11140;DHT22;5624;49.388;11.350;2023-01-30T14:58:56;1.20;92.30
11140;DHT22;5624;49.388;11.350;2023-01-30T15:01:23;1.20;92.20
11140;DHT22;5624;49.388;11.350;2023-01-30T15:03:49;1.10;92.70
11140;DHT22;5624;49.388;11.350;2023-01-30T15:06:15;1.10;92.80
11140;DHT22;5624;49.388;11.350;2023-01-30T15:08:42;1.10;92.80
11140;DHT22;5624;49.388;11.350;2023-01-30T15:11:20;1.10;92.80
11140;DHT22;5624;49.388;11.350;2023-01-30T15:32:28;1.00;93.10
11140;DHT22;5624;49.388;11.350;2023-01-30T15:35:00;1.00;93.00
11140;DHT22;5624;49.388;11.350;2023-01-30T15:37:37;1.00;92.70
11140;DHT22;5624;49.388;11.350;2023-01-30T15:42:47;1.00;92.40
11140;DHT22;5624;49.388;11.350;2023-01-30T15:50:38;1.10;92.00
11140;DHT22;5624;49.388;11.350;2023-01-30T15:53:11;1.10;92.00
11140;DHT22;5624;49.388;11.350;2023-01-30T15:55:37;1.10;91.80
11140;DHT22;5624;49.388;11.350;2023-01-30T15:58:08;1.10;91.70
11140;DHT22;5624;49.388;11.350;2023-01-30T16:00:38;1.10;91.80
11140;DHT22;5624;49.388;11.350;2023-01-30T16:03:14;1.10;91.80
11140;DHT22;5624;49.388;11.350;2023-01-30T16:05:49;1.10;91.90
11140;DHT22;5624;49.388;11.350;2023-01-30T16:08:24;1.10;91.90
11140;DHT22;5624;49.388;11.350;2023-01-30T16:10:50;1.10;92.20
11140;DHT22;5624;49.388;11.350;2023-01-30T16:13:18;1.10;92.60
11140;DHT22;5624;49.388;11.350;2023-01-30T16:21:08;1.10;92.70
11140;DHT22;5624;49.388;11.350;2023-01-30T16:23:40;1.20;92.40
11140;DHT22;5624;49.388;11.350;2023-01-30T16:26:14;1.10;92.60
11140;DHT22;5624;49.388;11.350;2023-01-30T16:28:50;1.10;92.90
11140;DHT22;5624;49.388;11.350;2023-01-30T16:31:22;1.20;92.70
11140;DHT22;5624;49.388;11.350;2023-01-30T16:33:50;1.20;92.80
11140;DHT22;5624;49.388;11.350;2023-01-30T16:38:46;1.10;92.80
11140;DHT22;5624;49.388;11.350;2023-01-30T16:44:20;1.10;93.10
11140;DHT22;5624;49.388;11.350;2023-01-30T16:47:10;1.10;93.20
11140;DHT22;5624;49.388;11.350;2023-01-30T16:49:46;1.10;93.10
11140;DHT22;5624;49.388;11.350;2023-01-30T16:52:35;1.10;93.20
11140;DHT22;5624;49.388;11.350;2023-01-30T16:55:16;1.10;93.30
11140;DHT22;5624;49.388;11.350;2023-01-30T16:57:54;1.10;93.20
11140;DHT22;5624;49.388;11.350;2023-01-30T17:00:31;1.10;93.10
11140;DHT22;5624;49.388;11.350;2023-01-30T17:03:01;1.10;93.20
11140;DHT22;5624;49.388;11.350;2023-01-30T17:05:38;1.10;93.10
11140;DHT22;5624;49.388;11.350;2023-01-30T17:08:04;1.10;93.30
11140;DHT22;5624;49.388;11.350;2023-01-30T17:13:02;1.10;93.00
11140;DHT22;5624;49.388;11.350;2023-01-30T17:15:30;1.10;93.20
11140;DHT22;5624;49.388;11.350;2023-01-30T17:17:56;1.10;93.00
11140;DHT22;5624;49.388;11.350;2023-01-30T17:20:23;1.20;92.80
11140;DHT22;5624;49.388;11.350;2023-01-30T17:22:52;1.20;92.90
11140;DHT22;5624;49.388;11.350;2023-01-30T17:25:29;1.20;92.80
11140;DHT22;5624;49.388;11.350;2023-01-30T17:27:56;1.20;92.90
11140;DHT22;5624;49.388;11.350;2023-01-30T17:30:22;1.20;93.00
11140;DHT22;5624;49.388;11.350;2023-01-30T17:32:47;1.20;93.00
11140;DHT22;5624;49.388;11.350;2023-01-30T17:35:15;1.20;93.10
11140;DHT22;5624;49.388;11.350;2023-01-30T17:37:41;1.20;92.80
11140;DHT22;5624;49.388;11.350;2023-01-30T17:40:16;1.20;92.70
11140;DHT22;5624;49.388;11.350;2023-01-30T17:42:42;1.20;92.90
11140;DHT22;5624;49.388;11.350;2023-01-30T17:45:08;1.30;92.60
11140;DHT22;5624;49.388;11.350;2023-01-30T17:47:35;1.30;92.80
11140;DHT22;5624;49.388;11.350;2023-01-30T17:50:00;1.20;92.70
11140;DHT22;5624;49.388;11.350;2023-01-30T17:52:26;1.30;92.60
11140;DHT22;5624;49.388;11.350;2023-01-30T17:54:51;1.20;92.50
11140;DHT22;5624;49.388;11.350;2023-01-30T17:57:17;1.20;92.40
11140;DHT22;5624;49.388;11.350;2023-01-30T17:59:44;1.20;92.60
11140;DHT22;5624;49.388;11.350;2023-01-30T18:02:11;1.20;92.60
11140;DHT22;5624;49.388;11.350;2023-01-30T18:04:37;1.20;92.80
11140;DHT22;5624;49.388;11.350;2023-01-30T18:07:06;1.20;92.60
11140;DHT22;5624;49.388;11.350;2023-01-30T18:09:34;1.20;92.60
11140;DHT22;5624;49.388;11.350;2023-01-30T18:12:00;1.20;92.50
11140;DHT22;5624;49.388;11.350;2023-01-30T18:14:26;1.20;92.70
11140;DHT22;5624;49.388;11.350;2023-01-30T18:16:52;1.20;92.80
11140;DHT22;5624;49.388;11.350;2023-01-30T18:19:24;1.20;92.50
11140;DHT22;5624;49.388;11.350;2023-01-30T18:21:50;1.20;92.50
11140;DHT22;5624;49.388;11.350;2023-01-30T18:24:15;1.20;92.40
11140;DHT22;5624;49.388;11.350;2023-01-30T18:26:41;1.20;92.50
11140;DHT22;5624;49.388;11.350;2023-01-30T18:29:08;1.20;92.20
11140;DHT22;5624;49.388;11.350;2023-01-30T18:31:37;1.20;92.20
11140;DHT22;5624;49.388;11.350;2023-01-30T18:34:03;1.30;92.20
11140;DHT22;5624;49.388;11.350;2023-01-30T18:36:32;1.30;92.10
11140;DHT22;5624;49.388;11.350;2023-01-30T18:38:58;1.30;92.00
11140;DHT22;5624;49.388;11.350;2023-01-30T18:41:25;1.20;92.20
11140;DHT22;5624;49.388;11.350;2023-01-30T18:44:01;1.20;92.00
11140;DHT22;5624;49.388;11.350;2023-01-30T18:46:27;1.30;91.90
11140;DHT22;5624;49.388;11.350;2023-01-30T18:48:54;1.30;91.80
11140;DHT22;5624;49.388;11.350;2023-01-30T18:51:23;1.30;91.70
11140;DHT22;5624;49.388;11.350;2023-01-30T18:53:50;1.20;92.00